Time;durP1;ratioP1;P1;durP2;ratioP2;P2;SDS_P1;SDS_P2;PMS_P1;PMS_P2;Temp;Humidity;BMP_temperature;BMP_pressure;BME280_temperature;BME280_humidity;BME280_pressure;Samples;Min_cycle;Max_cycle;Signal;HPM_P1;HPM_P2
2020/12/16 00:00:47;;;;;;;45.48;22.77;;;;;;;-0.66;91.18;101836.76;1735893;82;20995;-35
2020/12/16 00:03:15;;;;;;;39.92;20.97;;;;;;;-0.67;91.20;101826.97;1715273;82;21205;-35
2020/12/16 00:05:43;;;;;;;37.60;20.57;;;;;;;-0.65;91.16;101827.91;1735819;82;20984;-35
2020/12/16 00:08:12;;;;;;;42.03;22.52;;;;;;;-0.63;91.10;101825.45;1735905;82;21024;-36
2020/12/16 00:10:42;;;;;;;50.45;23.45;;;;;;;-0.65;91.11;101827.06;1735866;82;20996;-36
2020/12/16 00:13:10;;;;;;;44.05;22.37;;;;;;;-0.66;91.11;101825.31;1735875;82;20999;-35
2020/12/16 00:15:38;;;;;;;47.17;23.75;;;;;;;-0.64;91.07;101820.75;1735868;82;21267;-35
2020/12/16 00:18:06;;;;;;;46.33;24.72;;;;;;;-0.64;91.05;101824.98;1735810;82;20991;-36
2020/12/16 00:20:35;;;;;;;47.38;23.05;;;;;;;-0.66;91.06;101826.17;1735817;82;21019;-35
2020/12/16 00:23:03;;;;;;;50.48;22.87;;;;;;;-0.66;91.07;101826.17;1735802;82;21039;-36
2020/12/16 00:25:31;;;;;;;47.05;24.57;;;;;;;-0.66;91.07;101824.04;1735882;81;20932;-36
2020/12/16 00:27:59;;;;;;;47.50;23.50;;;;;;;-0.64;91.00;101832.20;1735845;82;21238;-34
2020/12/16 00:30:26;;;;;;;42.93;21.77;;;;;;;-0.65;91.02;101822.83;1735768;82;21031;-35
2020/12/16 00:32:55;;;;;;;42.20;22.22;;;;;;;-0.65;91.05;101824.09;1735928;82;21030;-35
2020/12/16 00:35:23;;;;;;;49.42;22.07;;;;;;;-0.66;91.04;101818.95;1725953;82;20928;-36
2020/12/16 00:37:51;;;;;;;43.75;22.20;;;;;;;-0.64;90.98;101820.75;1726418;82;20932;-36
2020/12/16 00:40:18;;;;;;;50.60;25.02;;;;;;;-0.64;90.98;101830.08;1735901;82;21371;-35
2020/12/16 00:42:48;;;;;;;46.05;22.77;;;;;;;-0.66;91.03;101838.89;1735917;82;20940;-36
2020/12/16 00:45:16;;;;;;;44.13;22.73;;;;;;;-0.66;91.06;101836.76;1735800;82;21609;-35
2020/12/16 00:47:44;;;;;;;50.43;24.92;;;;;;;-0.64;90.98;101835.16;1735845;82;20988;-36
2020/12/16 00:50:12;;;;;;;51.50;26.02;;;;;;;-0.62;90.94;101836.11;1735890;82;20980;-36
2020/12/16 00:52:41;;;;;;;41.50;21.62;;;;;;;-0.62;90.96;101833.56;1742169;81;21368;-35
2020/12/16 00:55:10;;;;;;;42.10;21.80;;;;;;;-0.60;90.98;101829.04;1749885;82;21121;-37
2020/12/16 00:57:38;;;;;;;51.53;25.60;;;;;;;-0.62;90.94;101830.64;1749949;82;20969;-35
2020/12/16 01:00:08;;;;;;;43.98;24.23;;;;;;;-0.61;90.89;101828.56;1749745;81;21010;-35
2020/12/16 01:02:42;;;;;;;44.93;23.32;;;;;;;-0.58;90.89;101830.37;1722138;82;21007;-35
2020/12/16 01:05:13;;;;;;;49.27;22.37;;;;;;;-0.57;90.90;101827.02;1749875;82;21830;-37
2020/12/16 01:07:43;;;;;;;47.27;23.18;;;;;;;-0.60;90.84;101825.22;1749908;82;21499;-37
2020/12/16 01:10:12;;;;;;;46.15;23.85;;;;;;;-0.59;90.77;101828.62;1722127;82;20986;-37
2020/12/16 01:12:41;;;;;;;42.00;21.80;;;;;;;-0.61;90.76;101823.48;1749766;82;20979;-37
2020/12/16 01:15:13;;;;;;;48.20;23.92;;;;;;;-0.62;90.81;101819.19;1749855;82;20880;-35
2020/12/16 01:17:42;;;;;;;49.93;24.20;;;;;;;-0.63;90.85;101819.09;1749804;82;21389;-35
2020/12/16 01:20:10;;;;;;;46.55;21.70;;;;;;;-0.61;90.76;101815.84;1749907;81;20994;-35
2020/12/16 01:22:42;;;;;;;40.83;21.15;;;;;;;-0.60;90.68;101826.87;1749958;82;21194;-37
2020/12/16 01:25:10;;;;;;;43.65;21.07;;;;;;;-0.63;90.72;101825.45;1749891;82;21015;-37
2020/12/16 01:27:39;;;;;;;42.27;20.62;;;;;;;-0.65;90.74;101829.60;1749802;82;21039;-34
2020/12/16 01:30:09;;;;;;;40.05;19.32;;;;;;;-0.67;90.77;101829.51;1749823;82;21370;-36
2020/12/16 01:32:38;;;;;;;45.28;20.25;;;;;;;-0.65;90.73;101824.09;1749788;80;21006;-36
2020/12/16 01:35:09;;;;;;;39.20;21.20;;;;;;;-0.65;90.69;101826.64;1749762;82;21505;-35
2020/12/16 01:37:38;;;;;;;40.85;20.75;;;;;;;-0.67;90.71;101823.16;1749790;82;20999;-34
2020/12/16 01:40:08;;;;;;;36.63;19.35;;;;;;;-0.67;90.73;101823.56;1750049;82;21474;-36
2020/12/16 01:42:41;;;;;;;46.37;22.75;;;;;;;-0.67;90.73;101826.11;1750010;82;22230;-37
2020/12/16 01:45:13;;;;;;;39.45;19.52;;;;;;;-0.66;90.68;101826.17;1749962;82;20999;-35
2020/12/16 01:47:41;;;;;;;44.80;22.85;;;;;;;-0.65;90.64;101829.60;1722484;82;20999;-35
2020/12/16 01:50:11;;;;;;;33.80;16.37;;;;;;;-0.66;90.66;101828.71;1749972;82;21030;-35
2020/12/16 01:52:40;;;;;;;48.23;22.32;;;;;;;-0.66;90.68;101833.80;1744162;82;20964;-36
2020/12/16 01:55:11;;;;;;;41.35;20.75;;;;;;;-0.64;90.63;101833.89;1715055;82;21374;-35
2020/12/16 01:57:45;;;;;;;49.88;23.67;;;;;;;-0.62;90.55;101833.56;1735368;82;21007;-34
2020/12/16 02:00:15;;;;;;;39.40;19.30;;;;;;;-0.63;90.58;101833.98;1735597;82;20996;-35
2020/12/16 02:02:49;;;;;;;46.00;22.42;;;;;;;-0.63;90.59;101835.25;1735864;82;21003;-35
2020/12/16 02:05:20;;;;;;;43.42;22.77;;;;;;;-0.62;90.54;101834.45;1735331;82;21007;-36
2020/12/16 02:07:49;;;;;;;37.80;19.23;;;;;;;-0.61;90.49;101840.02;1735869;82;21427;-35
2020/12/16 02:10:18;;;;;;;39.83;20.00;;;;;;;-0.62;90.50;101839.92;1735933;82;21054;-35
2020/12/16 02:12:47;;;;;;;42.73;21.40;;;;;;;-0.63;90.55;101853.06;1735926;82;20984;-35
2020/12/16 02:15:16;;;;;;;44.10;22.15;;;;;;;-0.61;90.52;101851.84;1736045;82;21010;-36
2020/12/16 02:17:44;;;;;;;51.55;23.75;;;;;;;-0.60;90.44;101850.66;1735952;82;20924;-35
2020/12/16 02:20:12;;;;;;;40.67;20.52;;;;;;;-0.62;90.49;101859.89;1736022;81;23588;-35
2020/12/16 02:22:49;;;;;;;46.25;22.32;;;;;;;-0.61;90.52;101861.64;1735601;82;21015;-36
2020/12/16 02:25:17;;;;;;;;;;;;;;;-0.60;90.47;101857.02;1738563;82;20944;-35
2020/12/16 02:27:47;;;;;;;39.00;19.20;;;;;;;-0.59;90.42;101856.61;1735418;82;20130;-35
2020/12/16 02:30:17;;;;;;;43.00;20.70;;;;;;;-0.60;90.44;101862.49;1735602;82;21530;-36
2020/12/16 02:32:49;;;;;;;44.88;20.60;;;;;;;-0.60;90.40;101864.66;1732639;82;21385;-35
2020/12/16 02:35:17;;;;;;;39.70;20.17;;;;;;;-0.55;90.27;101866.55;1735881;82;21126;-35
2020/12/16 02:37:47;;;;;;;46.30;20.37;;;;;;;-0.55;90.25;101866.55;1735721;81;21011;-37
2020/12/16 02:40:16;;;;;;;49.55;22.52;;;;;;;-0.55;90.20;101865.28;1734978;82;20995;-34
2020/12/16 02:42:45;;;;;;;42.70;21.87;;;;;;;-0.54;90.14;101863.20;1714154;82;21079;-37
2020/12/16 02:45:13;;;;;;;40.73;19.55;;;;;;;-0.52;90.11;101861.19;1735975;82;21201;-34
2020/12/16 02:47:43;;;;;;;43.95;20.05;;;;;;;-0.54;90.09;101856.43;1733888;82;21016;-35
2020/12/16 02:50:12;;;;;;;39.63;19.27;;;;;;;-0.55;90.06;101862.31;1734940;82;20984;-36
2020/12/16 02:52:43;;;;;;;38.83;19.30;;;;;;;-0.55;89.96;101855.95;1739728;81;21007;-35
2020/12/16 02:55:14;;;;;;;39.85;18.23;;;;;;;-0.52;89.91;101862.47;1749598;82;20919;-35
2020/12/16 02:57:43;;;;;;;36.08;17.87;;;;;;;-0.52;89.89;101865.42;1747525;82;21208;-35
2020/12/16 03:00:11;;;;;;;33.38;16.27;;;;;;;-0.52;89.82;101867.55;1749860;82;21015;-34
2020/12/16 03:02:47;;;;;;;;;;;;;;;-0.51;89.75;101868.44;1749842;82;21028;-35
2020/12/16 03:05:26;;;;;;;37.70;18.25;;;;;;;-0.50;89.66;101873.63;1729787;82;20480;-37
2020/12/16 03:07:55;;;;;;;36.65;17.82;;;;;;;-0.50;89.63;101867.64;1749930;82;20924;-35
2020/12/16 03:10:23;;;;;;;28.15;14.43;;;;;;;-0.51;89.62;101873.11;1749874;82;21234;-35
2020/12/16 03:12:51;;;;;;;35.25;17.23;;;;;;;-0.52;89.59;101875.60;1749817;82;20979;-36
2020/12/16 03:15:19;;;;;;;26.93;15.50;;;;;;;-0.50;89.53;101874.00;1749870;81;20979;-36
2020/12/16 03:17:47;;;;;;;31.60;15.32;;;;;;;-0.49;89.45;101874.48;1749893;82;20987;-36
2020/12/16 03:20:15;;;;;;;35.23;16.57;;;;;;;-0.50;89.39;101873.63;1749944;82;21027;-36
2020/12/16 03:22:43;;;;;;;32.30;15.03;;;;;;;-0.49;89.32;101875.75;1749949;82;21210;-35
2020/12/16 03:25:15;;;;;;;28.10;14.05;;;;;;;-0.48;89.15;101869.86;1748959;82;21058;-37
2020/12/16 03:28:01;;;;;;;27.42;14.47;;;;;;;-0.46;89.06;101869.54;1750018;81;20940;-36
2020/12/16 03:30:37;;;;;;;;;;;;;;;-0.48;89.01;101878.77;1726785;82;20995;-35
2020/12/16 03:33:25;;;;;;;24.72;11.45;;;;;;;-0.49;88.95;101880.45;1725187;82;20126;-36
2020/12/16 03:36:03;;;;;;;24.82;12.47;;;;;;;-0.45;88.81;101878.91;1847668;76;22754;-35
2020/12/16 03:38:33;;;;;;;26.82;13.35;;;;;;;-0.49;88.67;101889.36;1818161;79;20899;-35
2020/12/16 03:41:02;;;;;;;26.33;11.68;;;;;;;-0.50;88.63;101884.18;1818113;79;21353;-37
2020/12/16 03:43:31;;;;;;;28.47;13.72;;;;;;;-0.53;88.48;101885.30;1817716;79;20930;-35
2020/12/16 03:46:00;;;;;;;24.25;13.08;;;;;;;-0.54;88.40;101888.65;1818063;79;20927;-34
2020/12/16 03:48:29;;;;;;;22.02;11.68;;;;;;;-0.54;88.32;101888.65;1818109;79;20983;-35
2020/12/16 03:50:57;;;;;;;19.23;10.35;;;;;;;-0.54;88.17;101891.19;1818121;79;21034;-35
2020/12/16 03:53:25;;;;;;;14.90;8.45;;;;;;;-0.54;87.86;101890.77;1818118;79;21188;-34
2020/12/16 03:56:08;;;;;;;16.85;9.80;;;;;;;-0.51;87.39;101895.16;1805692;79;21041;-36
2020/12/16 03:58:44;;;;;;;17.90;9.38;;;;;;;-0.51;87.15;101899.83;1813093;79;20970;-34
2020/12/16 04:01:19;;;;;;;16.32;9.48;;;;;;;-0.52;87.04;101901.90;1817442;78;20987;-36
2020/12/16 04:03:48;;;;;;;16.75;8.75;;;;;;;-0.54;86.92;101904.77;1785352;79;20950;-36
2020/12/16 04:06:21;;;;;;;15.95;8.95;;;;;;;-0.54;86.73;101907.73;1817244;79;22768;-36
2020/12/16 04:08:49;;;;;;;16.40;9.65;;;;;;;-0.55;86.67;101910.66;1817969;79;20958;-37
2020/12/16 04:11:22;;;;;;;15.43;8.53;;;;;;;-0.54;86.62;101916.63;1817240;79;20911;-36
2020/12/16 04:13:51;;;;;;;19.12;9.93;;;;;;;-0.57;86.60;101902.08;1818029;79;21429;-34
2020/12/16 04:16:21;;;;;;;13.48;8.90;;;;;;;-0.55;86.53;101918.70;1818047;79;21034;-35
2020/12/16 04:18:51;;;;;;;16.25;9.65;;;;;;;-0.55;86.50;101915.74;1817804;79;21362;-36
2020/12/16 04:21:20;;;;;;;20.97;10.82;;;;;;;-0.58;86.51;101918.14;1818054;79;20998;-36
2020/12/16 04:23:48;;;;;;;16.93;9.65;;;;;;;-0.59;86.54;101912.58;1786706;79;21481;-36
2020/12/16 04:26:18;;;;;;;18.32;9.73;;;;;;;-0.58;86.48;101914.32;1816424;79;20986;-36
2020/12/16 04:28:46;;;;;;;15.93;9.85;;;;;;;-0.57;86.46;101919.88;1786995;79;20994;-35
2020/12/16 04:31:15;;;;;;;18.65;10.25;;;;;;;-0.58;86.48;101918.14;1818088;79;22631;-35
2020/12/16 04:33:43;;;;;;;16.75;10.55;;;;;;;-0.61;86.57;101918.88;1818069;79;21006;-36
2020/12/16 04:36:11;;;;;;;20.62;11.28;;;;;;;-0.59;86.54;101921.48;1817982;78;20990;-36
2020/12/16 04:38:40;;;;;;;19.15;9.78;;;;;;;-0.60;86.62;101918.46;1818068;79;21006;-36
2020/12/16 04:41:08;;;;;;;18.90;10.90;;;;;;;-0.61;86.72;101927.78;1818001;79;20999;-35
2020/12/16 04:43:41;;;;;;;17.15;10.45;;;;;;;-0.62;86.77;101926.41;1818095;79;21353;-35
2020/12/16 04:46:14;;;;;;;21.95;11.12;;;;;;;-0.60;86.78;101932.45;1817737;79;20959;-34
2020/12/16 04:48:46;;;;;;;18.40;10.85;;;;;;;-0.61;86.84;101930.70;1817445;79;20986;-34
2020/12/16 04:51:25;;;;;;;20.90;11.95;;;;;;;-0.63;86.91;101926.83;1815861;79;21009;-36
2020/12/16 04:53:54;;;;;;;19.20;10.55;;;;;;;-0.63;86.99;101934.45;1817508;79;21279;-34
2020/12/16 04:56:24;;;;;;;16.85;10.13;;;;;;;-0.63;87.00;101925.94;1816981;79;21386;-33
2020/12/16 04:58:54;;;;;;;16.67;10.10;;;;;;;-0.63;86.98;101933.57;1810445;79;21934;-35
2020/12/16 05:01:23;;;;;;;17.20;10.78;;;;;;;-0.65;87.07;101929.66;1817491;79;21287;-36
2020/12/16 05:03:52;;;;;;;20.23;9.75;;;;;;;-0.68;87.12;101928.66;1816977;79;21002;-35
2020/12/16 05:06:40;;;;;;;16.50;9.70;;;;;;;-0.68;87.15;101932.05;1813304;78;20986;-36
2020/12/16 05:09:11;;;;;;;13.93;8.80;;;;;;;-0.69;87.16;101931.58;1817392;79;21359;-35
2020/12/16 05:11:51;;;;;;;15.50;9.98;;;;;;;-0.71;87.25;101934.44;1817421;79;21069;-36
2020/12/16 05:14:23;;;;;;;17.07;9.83;;;;;;;-0.72;87.30;101939.05;1787431;79;20971;-37
2020/12/16 05:17:01;;;;;;;12.98;7.30;;;;;;;-0.69;87.24;101938.34;1817538;79;21109;-35
2020/12/16 05:19:40;;;;;;;10.70;7.03;;;;;;;-0.70;87.05;101938.73;1817537;78;21460;-35
2020/12/16 05:22:28;;;;;;;11.28;7.25;;;;;;;-0.75;86.90;101938.89;1817495;79;21363;-34
2020/12/16 05:24:58;;;;;;;11.88;7.87;;;;;;;-0.76;86.81;101934.23;1817428;79;21100;-36
2020/12/16 05:27:29;;;;;;;11.53;7.72;;;;;;;-0.75;86.76;101944.88;1817541;77;20975;-35
2020/12/16 05:30:07;;;;;;;10.53;7.42;;;;;;;-0.76;86.72;101944.78;1817364;79;20974;-36
2020/12/16 05:32:35;;;;;;;16.17;8.48;;;;;;;-0.76;86.66;101943.51;1817441;79;20994;-35
2020/12/16 05:35:35;;;;;;;9.93;6.70;;;;;;;-0.75;86.62;101943.60;1822426;78;21127;-35
2020/12/16 05:38:08;;;;;;;12.03;7.45;;;;;;;-0.77;86.54;101943.03;1832458;78;20907;-36
2020/12/16 05:40:38;;;;;;;13.00;8.28;;;;;;;-0.80;86.47;101941.61;1832480;78;20981;-36
2020/12/16 05:43:06;;;;;;;12.20;7.28;;;;;;;-0.78;86.42;101949.77;1832441;78;21021;-38
2020/12/16 05:45:39;;;;;;;16.67;8.43;;;;;;;-0.76;86.41;101958.77;1832566;78;20919;-35
2020/12/16 05:48:11;;;;;;;12.33;7.50;;;;;;;-0.76;86.39;101952.41;1832431;78;21225;-36
2020/12/16 05:50:53;;;;;;;10.65;7.00;;;;;;;-0.76;86.26;101961.31;1832464;78;21073;-37
2020/12/16 05:53:23;;;;;;;12.23;7.72;;;;;;;-0.73;86.24;101951.30;1832541;78;20863;-36
2020/12/16 05:56:01;;;;;;;13.75;7.70;;;;;;;-0.73;86.17;101944.94;1832330;78;20914;-36
2020/12/16 05:58:32;;;;;;;13.95;7.53;;;;;;;-0.76;86.07;101947.32;1832530;78;21410;-35
2020/12/16 06:01:06;;;;;;;12.18;7.55;;;;;;;-0.75;86.04;101950.34;1832489;78;21453;-38
2020/12/16 06:03:38;;;;;;;10.70;7.28;;;;;;;-0.75;86.04;101946.14;1832499;78;20923;-35
2020/12/16 06:06:08;;;;;;;13.20;8.30;;;;;;;-0.75;86.04;101951.61;1832513;78;20977;-35
2020/12/16 06:08:42;;;;;;;14.85;8.48;;;;;;;-0.75;86.08;101963.06;1832572;78;20969;-36
2020/12/16 06:11:12;;;;;;;13.88;7.50;;;;;;;-0.71;86.04;101966.23;1832502;78;20915;-34
2020/12/16 06:13:46;;;;;;;13.30;8.50;;;;;;;-0.70;86.03;101963.31;1832548;77;21432;-35
2020/12/16 06:16:13;;;;;;;16.00;8.85;;;;;;;-0.72;85.97;101958.13;1832405;78;20910;-36
2020/12/16 06:18:45;;;;;;;11.35;7.67;;;;;;;-0.70;85.95;101965.85;1832512;78;20994;-38
2020/12/16 06:21:14;;;;;;;14.53;7.50;;;;;;;-0.67;85.90;101966.87;1832419;78;20943;-36
2020/12/16 06:23:43;;;;;;;13.25;8.18;;;;;;;-0.67;85.76;101966.87;1832494;78;20918;-36
2020/12/16 06:26:15;;;;;;;13.53;7.87;;;;;;;-0.69;85.78;101968.87;1832557;78;22585;-36
2020/12/16 06:28:44;;;;;;;16.45;8.08;;;;;;;-0.69;85.84;101973.55;1832394;78;20993;-36
2020/12/16 06:31:32;;;;;;;13.20;8.08;;;;;;;-0.64;85.77;101978.87;1832460;78;20955;-35
2020/12/16 06:34:03;;;;;;;11.80;7.90;;;;;;;-0.62;85.72;101976.02;1832379;78;20899;-38
2020/12/16 06:36:39;;;;;;;16.20;8.43;;;;;;;-0.61;85.73;101991.38;1820851;78;20979;-35
2020/12/16 06:39:25;;;;;;;13.93;7.95;;;;;;;-0.61;85.71;101990.10;1817368;78;21325;-36
2020/12/16 06:41:59;;;;;;;14.33;7.75;;;;;;;-0.59;85.64;101991.05;1817091;78;20885;-36
2020/12/16 06:44:27;;;;;;;11.22;7.28;;;;;;;-0.57;85.69;101987.30;1817454;79;21387;-36
2020/12/16 06:46:56;;;;;;;14.73;8.45;;;;;;;-0.54;85.64;101987.45;1817336;79;20979;-35
2020/12/16 06:49:31;;;;;;;16.30;8.50;;;;;;;-0.53;85.63;101988.34;1817331;79;21018;-36
2020/12/16 06:52:03;;;;;;;12.98;8.10;;;;;;;-0.49;85.52;101994.06;1817588;78;21623;-36
2020/12/16 06:54:41;;;;;;;14.10;7.40;;;;;;;-0.48;85.44;102000.90;1817438;79;21116;-36
2020/12/16 06:57:16;;;;;;;11.18;7.47;;;;;;;-0.47;85.43;102002.27;1817387;79;20970;-36
2020/12/16 06:59:48;;;;;;;18.87;7.80;;;;;;;-0.46;85.44;102005.67;1817474;78;21314;-34
2020/12/16 07:02:32;;;;;;;12.43;7.55;;;;;;;-0.42;85.34;102014.34;1817533;78;21464;-38
2020/12/16 07:05:02;;;;;;;12.85;7.50;;;;;;;-0.43;85.34;102017.27;1817172;79;21199;-35
2020/12/16 07:07:56;;;;;;;10.23;6.92;;;;;;;-0.43;85.34;102010.91;1817360;79;20939;-36
2020/12/16 07:10:44;;;;;;;11.95;7.83;;;;;;;-0.42;85.30;102007.57;1817270;78;20923;-36
2020/12/16 07:13:16;;;;;;;;;;;;;;;-0.37;85.24;102009.98;1819940;78;20959;-36
2020/12/16 07:15:58;;;;;;;11.78;7.42;;;;;;;-0.31;85.11;102009.39;1817480;78;20372;-35
2020/12/16 07:18:41;;;;;;;14.03;8.05;;;;;;;-0.31;84.99;102006.85;1817339;79;21135;-37
2020/12/16 07:21:14;;;;;;;10.72;7.78;;;;;;;-0.30;84.96;102009.48;1817330;79;20981;-37
2020/12/16 07:24:12;;;;;;;15.80;9.00;;;;;;;-0.24;84.91;102007.66;1817437;79;20927;-36
2020/12/16 07:26:53;;;;;;;22.30;13.50;;;;;;;-0.20;84.87;102003.20;1790361;79;20971;-36
2020/12/16 07:29:38;;;;;;;10.78;7.08;;;;;;;-0.16;84.65;102002.55;1817322;79;20916;-36
2020/12/16 07:32:13;;;;;;;10.50;7.08;;;;;;;-0.13;84.35;102004.77;1817336;78;21419;-36
2020/12/16 07:35:01;;;;;;;10.82;7.00;;;;;;;-0.09;84.15;102007.94;1817472;78;21541;-35
2020/12/16 07:37:31;;;;;;;10.35;7.12;;;;;;;-0.09;83.84;102007.94;1817166;79;20923;-35
2020/12/16 07:40:10;;;;;;;11.95;7.50;;;;;;;-0.09;83.89;102005.02;1817299;78;20963;-37
2020/12/16 07:42:35;;;;;;;15.10;8.10;;;;;;;-0.06;83.88;102010.26;1817205;79;21280;-37
2020/12/16 07:45:08;;;;;;;9.60;6.80;;;;;;;-0.02;83.70;102013.42;1817216;79;21188;-36
2020/12/16 07:47:37;;;;;;;19.00;11.83;;;;;;;0.02;83.54;102012.30;1817390;78;21501;-36
2020/12/16 07:50:10;;;;;;;12.98;8.20;;;;;;;0.04;83.41;102024.33;1817376;79;20967;-37
2020/12/16 07:52:39;;;;;;;10.08;6.65;;;;;;;0.06;83.27;102026.93;1817272;79;21120;-35
2020/12/16 07:55:08;;;;;;;10.48;7.40;;;;;;;0.08;83.18;102026.61;1817375;79;21473;-36
2020/12/16 07:57:37;;;;;;;11.88;7.60;;;;;;;0.10;83.09;102027.55;1817348;79;21195;-35
2020/12/16 08:00:06;;;;;;;8.88;6.87;;;;;;;0.10;82.98;102025.90;1817249;78;21568;-35
2020/12/16 08:02:46;;;;;;;12.45;7.40;;;;;;;0.10;82.87;102031.38;1817273;79;20951;-36
2020/12/16 08:05:14;;;;;;;10.78;7.20;;;;;;;0.12;82.89;102033.59;1817326;79;20904;-36
2020/12/16 08:07:42;;;;;;;11.35;7.00;;;;;;;0.16;82.79;102027.00;1817399;79;20947;-36
2020/12/16 08:10:10;;;;;;;9.63;6.65;;;;;;;0.19;82.73;102028.03;1817351;79;21346;-35
2020/12/16 08:12:42;;;;;;;9.28;6.40;;;;;;;0.20;82.73;102024.69;1817216;79;20959;-38
2020/12/16 08:15:16;;;;;;;7.25;5.50;;;;;;;0.23;82.48;102023.56;1817300;79;20931;-35
2020/12/16 08:17:47;;;;;;;6.67;5.53;;;;;;;0.23;82.20;102019.73;1817262;79;20860;-36
2020/12/16 08:20:23;;;;;;;8.00;4.97;;;;;;;0.25;82.04;102014.31;1817313;79;21363;-36
2020/12/16 08:23:01;;;;;;;4.53;4.10;;;;;;;0.29;81.81;102020.45;1817604;78;26756;-35
2020/12/16 08:25:27;;;;;;;5.42;4.25;;;;;;;0.33;81.35;102012.53;1817353;78;21220;-34
2020/12/16 08:27:56;;;;;;;4.92;4.47;;;;;;;0.28;80.66;102012.33;1817443;79;20916;-36
2020/12/16 08:30:27;;;;;;;9.43;4.50;;;;;;;0.25;80.42;102009.22;1817448;78;21006;-38
2020/12/16 08:33:13;;;;;;;6.35;4.95;;;;;;;0.28;80.40;102013.61;1817494;78;20959;-35
2020/12/16 08:36:04;;;;;;;6.75;5.22;;;;;;;0.34;80.41;102009.19;1819672;78;21290;-36
2020/12/16 08:38:40;;;;;;;4.95;4.47;;;;;;;0.39;80.24;102014.13;1832547;78;21427;-36
2020/12/16 08:41:07;;;;;;;5.40;4.67;;;;;;;0.40;80.03;102015.45;1831713;78;21033;-37
2020/12/16 08:43:37;;;;;;;7.33;5.40;;;;;;;0.39;79.83;102009.89;1832663;78;20898;-36
2020/12/16 08:46:12;;;;;;;7.08;5.40;;;;;;;0.40;79.89;102013.33;1832526;78;20977;-34
2020/12/16 08:49:01;;;;;;;6.22;5.08;;;;;;;0.38;79.97;102009.80;1832691;78;21399;-37
2020/12/16 08:51:44;;;;;;;5.92;5.33;;;;;;;0.40;79.89;102009.09;1832564;78;21045;-36
2020/12/16 08:54:18;;;;;;;5.25;4.10;;;;;;;0.42;79.85;102010.45;1832646;78;21002;-35
2020/12/16 08:56:57;;;;;;;6.50;5.22;;;;;;;0.37;79.64;102008.95;1831669;78;21005;-35
2020/12/16 08:59:27;;;;;;;5.95;4.45;;;;;;;0.36;79.76;102018.66;1812897;78;20963;-36
2020/12/16 09:02:06;;;;;;;5.25;4.22;;;;;;;0.38;79.68;102021.27;1812855;79;21354;-37
2020/12/16 09:04:37;;;;;;;4.45;3.58;;;;;;;0.38;79.67;102019.61;1812785;78;21043;-36
2020/12/16 09:07:17;;;;;;;4.45;4.03;;;;;;;0.37;79.56;102019.14;1812845;78;20963;-36
2020/12/16 09:10:37;;;;;;;4.85;4.37;;;;;;;0.36;78.90;102012.67;1777111;79;22055;-36
2020/12/16 09:13:16;;;;;;;4.20;3.80;;;;;;;0.31;78.68;102015.41;1749920;82;20971;-35
2020/12/16 09:15:50;;;;;;;5.92;4.60;;;;;;;0.30;78.77;102016.20;1749734;82;21291;-34
2020/12/16 09:18:27;;;;;;;4.62;3.98;;;;;;;0.32;78.95;102015.50;1749790;82;20931;-35
2020/12/16 09:20:56;;;;;;;5.65;4.10;;;;;;;0.34;77.87;102011.34;1749715;82;20987;-34
2020/12/16 09:23:28;;;;;;;5.33;4.03;;;;;;;0.27;78.15;102002.52;1749814;81;20916;-37
2020/12/16 09:25:57;;;;;;;8.28;4.72;;;;;;;0.26;78.14;102004.60;1749849;81;21435;-36
2020/12/16 09:28:39;;;;;;;5.62;4.60;;;;;;;0.30;78.35;102006.02;1749708;82;21206;-36
2020/12/16 09:31:15;;;;;;;5.55;4.83;;;;;;;0.34;78.47;102010.08;1749772;82;21513;-35
2020/12/16 09:33:57;;;;;;;5.10;4.28;;;;;;;0.44;78.44;102012.67;1749779;82;20983;-36
2020/12/16 09:36:28;;;;;;;3.65;3.35;;;;;;;0.49;78.33;102017.97;1748695;81;21010;-35
2020/12/16 09:39:00;;;;;;;5.15;4.58;;;;;;;0.54;78.17;102021.22;1749744;81;20924;-36
2020/12/16 09:41:28;;;;;;;6.00;4.72;;;;;;;0.53;78.05;102023.30;1749915;81;21196;-36
2020/12/16 09:43:57;;;;;;;5.97;4.60;;;;;;;0.56;78.21;102018.34;1749659;82;21189;-34
2020/12/16 09:46:26;;;;;;;5.95;4.47;;;;;;;0.60;78.09;102015.55;1749764;82;20971;-36
2020/12/16 09:48:59;;;;;;;16.00;9.90;;;;;;;0.64;78.12;102017.86;1749666;82;21113;-36
2020/12/16 09:51:27;;;;;;;5.33;4.78;;;;;;;0.67;77.90;102015.03;1749795;81;20923;-34
2020/12/16 09:53:57;;;;;;;8.88;6.42;;;;;;;0.63;77.19;102015.69;1749701;82;21261;-35
2020/12/16 09:56:26;;;;;;;10.10;6.85;;;;;;;0.53;76.86;102015.65;1749691;82;20951;-35
2020/12/16 09:58:54;;;;;;;4.30;3.90;;;;;;;0.45;77.05;102014.80;1749721;81;21026;-37
2020/12/16 10:01:23;;;;;;;4.35;3.95;;;;;;;0.43;77.31;102004.55;1749691;82;21042;-35
2020/12/16 10:03:51;;;;;;;3.70;3.40;;;;;;;0.41;77.28;102001.91;1749717;82;20967;-34
2020/12/16 11:04:45;;;;;;;3.22;2.85;;;;;;;0.57;78.62;101998.84;1850745;76;22089;-35
2020/12/16 11:07:13;;;;;;;3.45;3.15;;;;;;;0.61;78.07;102003.66;1855679;77;20915;-35
2020/12/16 11:09:40;;;;;;;3.20;3.00;;;;;;;0.57;77.29;102004.80;1855700;77;21366;-35
2020/12/16 11:12:09;;;;;;;6.20;2.90;;;;;;;0.54;77.09;101999.97;1855627;77;20986;-37
2020/12/16 11:14:38;;;;;;;3.00;2.80;;;;;;;0.52;77.25;101999.03;1825587;77;20931;-35
2020/12/16 11:17:08;;;;;;;3.58;3.27;;;;;;;0.52;77.20;102006.67;1855761;77;20879;-35
2020/12/16 11:19:36;;;;;;;4.37;3.33;;;;;;;0.51;77.19;102003.23;1855697;77;20959;-34
2020/12/16 11:22:04;;;;;;;3.70;3.20;;;;;;;0.52;77.22;101997.75;1855737;77;21177;-35
2020/12/16 11:24:33;;;;;;;3.65;3.35;;;;;;;0.52;77.16;102005.40;1855586;77;20930;-35
2020/12/16 11:27:00;;;;;;;3.83;3.33;;;;;;;0.49;77.02;101995.92;1855644;77;20931;-35
2020/12/16 11:29:28;;;;;;;3.27;2.80;;;;;;;0.47;77.12;101992.81;1855665;77;20998;-36
2020/12/16 11:32:00;;;;;;;3.10;2.90;;;;;;;0.47;77.09;101988.60;1855716;77;21588;-35
2020/12/16 11:34:28;;;;;;;3.60;3.30;;;;;;;0.49;77.14;101991.20;1855753;77;22228;-34
2020/12/16 11:36:58;;;;;;;4.15;3.42;;;;;;;0.47;77.05;101988.60;1855535;77;20907;-34
2020/12/16 11:39:26;;;;;;;5.55;4.03;;;;;;;0.49;77.12;101984.84;1855769;77;21425;-36
2020/12/16 11:41:55;;;;;;;5.10;4.60;;;;;;;0.45;76.90;101986.39;1855680;77;20926;-37
2020/12/16 11:44:24;;;;;;;5.12;4.53;;;;;;;0.39;76.88;101985.69;1855653;77;20895;-35
2020/12/16 11:46:52;;;;;;;5.12;4.62;;;;;;;0.35;76.93;101982.52;1855650;77;21360;-35
2020/12/16 11:49:22;;;;;;;4.78;4.37;;;;;;;0.37;76.97;101983.85;1855715;77;20951;-34
2020/12/16 11:51:50;;;;;;;5.40;4.80;;;;;;;0.38;77.03;101980.12;1855544;77;20966;-35
2020/12/16 11:54:18;;;;;;;4.08;3.72;;;;;;;0.41;76.94;101980.67;1855664;77;22227;-35
2020/12/16 11:56:46;;;;;;;5.08;4.58;;;;;;;0.39;77.04;101983.14;1855598;77;21014;-37
2020/12/16 11:59:16;;;;;;;4.47;4.08;;;;;;;0.40;77.02;101985.30;1852235;77;21176;-35
2020/12/16 12:01:44;;;;;;;4.30;3.90;;;;;;;0.40;77.03;101991.67;1855623;77;20922;-36
2020/12/16 12:04:12;;;;;;;7.05;4.05;;;;;;;0.41;77.02;101994.69;1847882;77;20947;-35
2020/12/16 12:06:39;;;;;;;4.47;4.08;;;;;;;0.40;77.06;101996.34;1843404;77;20999;-36
2020/12/16 12:09:09;;;;;;;4.72;4.33;;;;;;;0.37;76.86;102005.12;1822795;77;21013;-35
2020/12/16 12:11:37;;;;;;;4.53;4.12;;;;;;;0.31;76.95;102001.02;1843370;77;21317;-35
2020/12/16 12:14:04;;;;;;;5.50;4.15;;;;;;;0.31;77.00;102001.02;1843348;77;21014;-34
2020/12/16 12:16:32;;;;;;;5.50;4.00;;;;;;;0.31;77.07;102000.13;1843484;77;20923;-36
2020/12/16 12:19:00;;;;;;;4.40;4.05;;;;;;;0.33;77.07;101997.25;1843321;77;20983;-35
2020/12/16 12:21:28;;;;;;;4.47;4.00;;;;;;;0.33;77.20;101998.14;1843425;77;20990;-35
2020/12/16 12:23:56;;;;;;;15.55;4.45;;;;;;;0.32;77.23;101992.95;1843464;77;22061;-36
2020/12/16 12:26:24;;;;;;;4.42;3.70;;;;;;;0.28;77.17;101989.41;1843401;77;21195;-35
2020/12/16 12:28:52;;;;;;;4.58;4.08;;;;;;;0.19;77.22;101986.39;1843439;77;20908;-34
2020/12/16 12:31:21;;;;;;;4.40;4.00;;;;;;;0.12;77.43;101986.48;1843405;77;20983;-34
2020/12/16 12:33:49;;;;;;;7.90;4.35;;;;;;;0.08;77.52;101979.11;1843421;77;21003;-37
2020/12/16 12:36:17;;;;;;;4.87;4.30;;;;;;;0.05;77.80;101977.69;1843393;77;21177;-36
2020/12/16 12:38:45;;;;;;;4.83;4.08;;;;;;;0.02;77.96;101966.47;1843382;77;21214;-36